LFQQ/LIL METAR and TAF weather

Enter ICAO airport designator
Station Type Date Time Source
LFQQ METAR 2020/10/20 17:00 UTC NOAA

LFQQ 201700Z AUTO 17014KT 9999 FEW011 BKN068 OVC088 14/13 Q1006 TEMPO RA


Station Type Date Time Source
LFQQ Decoded METAR 2020/10/20 17:00 UTC NOAA

Lille, France (LFQQ) 50-34N 003-06E 52M
Oct 20, 2020 - 01:00 PM EDT / 2020.10.20 1700 UTC
Wind: from the S (170 degrees) at 16 MPH (14 KT):0
Visibility: greater than 7 mile(s):0
Sky conditions: overcast
Temperature: 57 F (14 C)
Dew Point: 55 F (13 C)
Relative Humidity: 93%
Pressure (altimeter): 29.71 in. Hg (1006 hPa)
ob: LFQQ 201700Z AUTO 17014KT 9999 FEW011 BKN068 OVC088 14/13 Q1006 TEMPO RA
cycle: 17

Station Type Date Time Source
LFQQ TAF 2020/10/20 12:21 UTC NOAA

TAF LFQQ 201100Z 2012/2118 17013KT CAVOK
TEMPO 2012/2105 RA PROB40
TEMPO 2020/2101 4000 BKN013 OVC080
BECMG 2107/2109 19020G30KT
BECMG 2109/2111 19025G40KT
BECMG 2113/2116 23013KT
TEMPO 2113/2118 SHRA

Example: see airport list